Time;durP1;ratioP1;P1;durP2;ratioP2;P2;SDS_P1;SDS_P2;PMS_P1;PMS_P2;Temp;Humidity;BMP_temperature;BMP_pressure;BME280_temperature;BME280_humidity;BME280_pressure;Samples;Min_cycle;Max_cycle;Signal;HPM_P1;HPM_P2
2022/05/27 00:02:01;;;;;;;;;;;;;13.40;97911.60;;;;110623;1251;41182;-61
2022/05/27 00:04:32;;;;;;;4.50;2.00;;;;;13.40;97908.80;;;;110648;1251;41240;-63
2022/05/27 00:07:03;;;;;;;6.00;2.30;;;;;13.36;97907.00;;;;110570;1253;42372;-60
2022/05/27 00:09:33;;;;;;;5.40;2.20;;;;;13.32;97903.80;;;;110608;1251;41142;-60
2022/05/27 00:12:03;;;;;;;5.20;2.00;;;;;13.24;97905.60;;;;110553;1253;41267;-73
2022/05/27 00:14:33;;;;;;;4.20;2.00;;;;;13.20;97904.60;;;;110610;1253;41465;-66
2022/05/27 00:17:04;;;;;;;5.30;2.30;;;;;13.20;97904.80;;;;110702;1251;41337;-60
2022/05/27 00:19:35;;;;;;;3.30;1.70;;;;;13.20;97899.00;;;;110729;1251;41152;-64
2022/05/27 00:22:05;;;;;;;5.20;2.20;;;;;13.24;97900.20;;;;110585;1253;42177;-60
2022/05/27 00:24:36;;;;;;;4.70;2.10;;;;;13.30;97898.00;;;;110631;1251;41170;-60
2022/05/27 00:27:08;;;;;;;4.90;1.90;;;;;13.30;97894.00;;;;110548;1253;41132;-61
2022/05/27 00:29:38;;;;;;;5.00;1.90;;;;;13.40;97889.40;;;;110655;1251;41602;-60
2022/05/27 00:32:30;;;;;;;3.50;1.80;;;;;13.46;97889.60;;;;110677;1250;41653;-59
2022/05/27 00:35:00;;;;;;;2.80;1.60;;;;;13.50;97885.00;;;;110675;1251;41477;-62
2022/05/27 00:37:30;;;;;;;3.80;1.90;;;;;13.56;97888.40;;;;110600;1253;41282;-60
2022/05/27 00:40:00;;;;;;;3.60;1.80;;;;;13.60;97883.60;;;;110572;1253;41152;-58
2022/05/27 00:42:30;;;;;;;5.80;2.10;;;;;13.60;97882.20;;;;110577;1253;41162;-61
2022/05/27 00:45:00;;;;;;;6.20;2.20;;;;;13.60;97885.40;;;;110667;1250;41369;-59
2022/05/27 00:47:33;;;;;;;5.80;2.30;;;;;13.50;97883.80;;;;110557;1253;41260;-63
2022/05/27 00:50:08;;;;;;;7.00;2.30;;;;;13.40;97881.20;;;;110488;1253;41273;-61
2022/05/27 00:52:39;;;;;;;4.20;2.00;;;;;13.40;97884.40;;;;110540;1253;41626;-67
2022/05/27 00:55:17;;;;;;;4.00;1.90;;;;;13.40;97882.20;;;;110534;1251;41179;-62
2022/05/27 00:58:08;;;;;;;3.80;1.80;;;;;13.40;97877.80;;;;110555;1253;41150;-63
2022/05/27 01:00:39;;;;;;;3.50;1.70;;;;;13.50;97880.60;;;;110589;1253;41964;-68
2022/05/27 01:03:12;;;;;;;3.50;1.70;;;;;13.50;97876.60;;;;110509;1254;41183;-71
2022/05/27 01:05:44;;;;;;;4.00;1.80;;;;;13.60;97874.60;;;;110563;1254;41145;-72
2022/05/27 01:08:18;;;;;;;7.50;2.20;;;;;13.60;97877.60;;;;110729;1250;42122;-72
2022/05/27 01:11:12;;;;;;;4.20;2.10;;;;;13.50;97875.80;;;;110616;1253;42128;-68
2022/05/27 01:13:56;;;;;;;6.10;2.40;;;;;13.40;97872.60;;;;110627;1251;41501;-64
2022/05/27 01:16:29;;;;;;;5.80;2.30;;;;;13.30;97877.40;;;;110571;1252;41256;-71
2022/05/27 01:22:16;;;;;;;5.80;2.30;;;;;13.30;97874.80;;;;110645;1250;41711;-70
2022/05/27 01:25:08;;;;;;;4.00;1.90;;;;;13.30;97872.40;;;;110511;1253;42134;-73
2022/05/27 01:28:02;;;;;;;4.00;1.90;;;;;13.40;97872.60;;;;110631;1251;41817;-63
2022/05/27 01:31:11;;;;;;;4.20;2.00;;;;;13.50;97874.00;;;;110620;1250;41589;-69
2022/05/27 01:33:42;;;;;;;4.30;1.80;;;;;13.50;97871.80;;;;110837;1250;41156;-69
2022/05/27 01:36:20;;;;;;;3.50;1.80;;;;;13.60;97873.40;;;;110672;1250;41144;-70
2022/05/27 01:39:15;;;;;;;3.90;1.90;;;;;13.60;97869.00;;;;110792;1250;42381;-70
2022/05/27 01:41:57;;;;;;;3.00;1.70;;;;;13.70;97862.20;;;;110826;1251;41733;-75
2022/05/27 01:44:48;;;;;;;4.70;2.20;;;;;13.70;97858.20;;;;110802;1250;41219;-59
2022/05/27 01:47:30;;;;;;;4.80;1.80;;;;;13.70;97855.80;;;;110821;1250;41258;-63
2022/05/27 01:50:15;;;;;;;3.70;1.60;;;;;13.80;97854.40;;;;110661;1251;41214;-76
2022/05/27 01:52:58;;;;;;;3.60;1.70;;;;;13.80;97854.40;;;;110704;1250;41161;-73
2022/05/27 01:56:17;;;;;;;3.20;1.70;;;;;13.80;97853.80;;;;110623;1251;41766;-75
2022/05/27 01:59:00;;;;;;;2.70;1.60;;;;;13.86;97849.40;;;;110141;1259;41643;-75
2022/05/27 02:01:35;;;;;;;3.10;1.70;;;;;13.90;97848.20;;;;110009;1259;41481;-66
2022/05/27 02:04:19;;;;;;;3.50;1.70;;;;;13.90;97850.40;;;;110070;1259;41168;-75
2022/05/27 02:07:01;;;;;;;2.60;1.60;;;;;13.96;97846.00;;;;110147;1259;41271;-71
2022/05/27 02:09:37;;;;;;;4.30;1.80;;;;;14.00;97850.00;;;;109982;1260;41299;-75
2022/05/27 02:12:18;;;;;;;4.00;1.80;;;;;14.00;97851.00;;;;110118;1259;41160;-73
2022/05/27 02:14:52;;;;;;;4.00;1.80;;;;;14.08;97850.20;;;;110091;1260;41274;-76
2022/05/27 02:17:27;;;;;;;3.60;1.70;;;;;14.10;97852.80;;;;110049;1259;41210;-62
2022/05/27 02:20:05;;;;;;;4.60;2.20;;;;;14.10;97859.80;;;;110132;1259;42993;-71
2022/05/27 02:22:41;;;;;;;5.80;2.50;;;;;14.10;97855.40;;;;110060;1260;41346;-72
2022/05/27 02:25:17;;;;;;;6.80;2.50;;;;;13.90;97854.20;;;;110058;1261;41268;-69
2022/05/27 02:28:11;;;;;;;5.70;2.10;;;;;13.80;97858.40;;;;109960;1260;41170;-67
2022/05/27 02:30:43;;;;;;;4.70;2.00;;;;;13.84;97858.60;;;;110146;1259;41386;-72
2022/05/27 02:36:11;;;;;;;4.30;2.10;;;;;13.92;97858.80;;;;110293;1254;41932;-65
2022/05/27 02:38:41;;;;;;;5.30;2.20;;;;;14.00;97852.60;;;;110582;1253;41694;-73
2022/05/27 02:41:17;;;;;;;4.40;2.10;;;;;14.00;97860.60;;;;110649;1251;41864;-72
2022/05/27 02:44:15;;;;;;;6.40;2.20;;;;;13.90;97863.20;;;;110825;1250;41509;-71
2022/05/27 02:46:55;;;;;;;4.20;1.90;;;;;13.90;97864.60;;;;110574;1251;41258;-66
2022/05/27 02:49:31;;;;;;;7.40;1.90;;;;;14.00;97867.00;;;;110583;1251;41444;-71
2022/05/27 02:52:38;;;;;;;4.10;1.80;;;;;14.00;97867.80;;;;110646;1250;41508;-60
2022/05/27 02:55:29;;;;;;;4.40;1.90;;;;;14.10;97865.80;;;;110640;1251;41191;-61
2022/05/27 02:58:02;;;;;;;6.70;2.10;;;;;14.20;97870.80;;;;110764;1250;41261;-68
2022/05/27 03:00:34;;;;;;;4.30;1.70;;;;;14.20;97868.80;;;;110589;1253;41400;-68
2022/05/27 03:03:04;;;;;;;3.20;1.80;;;;;14.30;97868.40;;;;110580;1249;41431;-60
2022/05/27 03:06:02;;;;;;;3.90;1.70;;;;;14.30;97867.20;;;;110610;1253;41268;-59
2022/05/27 03:08:43;;;;;;;3.00;1.60;;;;;14.30;97867.80;;;;110668;1251;42043;-76
2022/05/27 03:11:34;;;;;;;3.50;1.70;;;;;14.40;97869.80;;;;110476;1253;41266;-70
2022/05/27 03:14:29;;;;;;;2.40;1.60;;;;;14.40;97870.20;;;;110554;1252;41264;-62
2022/05/27 03:17:51;;;;;;;3.00;1.70;;;;;14.50;97872.20;;;;110635;1252;41264;-67
2022/05/27 03:20:24;;;;;;;5.40;1.60;;;;;14.50;97869.40;;;;110142;1253;41256;-68
2022/05/27 03:23:31;;;;;;;2.40;1.60;;;;;14.50;97867.80;;;;110626;1250;41654;-73
2022/05/27 03:26:15;;;;;;;4.40;1.90;;;;;14.60;97870.60;;;;110459;1252;41191;-70
2022/05/27 03:28:50;;;;;;;4.80;1.90;;;;;14.60;97865.60;;;;110576;1251;41263;-66
2022/05/27 03:31:43;;;;;;;4.60;1.90;;;;;14.60;97871.40;;;;110566;1253;42420;-70
2022/05/27 03:34:15;;;;;;;4.50;2.10;;;;;14.70;97873.00;;;;110620;1251;41167;-71
2022/05/27 03:37:00;;;;;;;5.00;2.10;;;;;14.70;97875.60;;;;110445;1252;41318;-75
2022/05/27 03:39:40;;;;;;;5.10;2.20;;;;;14.70;97874.60;;;;110589;1251;41327;-70
2022/05/27 03:42:11;;;;;;;5.30;2.10;;;;;14.70;97873.80;;;;110569;1253;41158;-69
2022/05/27 03:44:50;;;;;;;4.10;2.00;;;;;14.70;97875.60;;;;110556;1253;41154;-69
2022/05/27 03:47:21;;;;;;;4.30;2.00;;;;;14.70;97880.60;;;;110626;1251;41162;-59
2022/05/27 03:49:51;;;;;;;6.60;1.80;;;;;14.78;97884.20;;;;110572;1253;41959;-69
2022/05/27 03:52:23;;;;;;;4.50;1.90;;;;;14.80;97882.40;;;;110521;1253;41174;-70
2022/05/27 03:54:52;;;;;;;4.30;2.00;;;;;14.90;97879.60;;;;110651;1251;41597;-69
2022/05/27 03:57:22;;;;;;;3.90;1.80;;;;;14.90;97882.60;;;;110544;1252;40772;-74
2022/05/27 03:59:52;;;;;;;4.50;1.80;;;;;15.00;97885.40;;;;110644;1250;41157;-76
2022/05/27 04:02:21;;;;;;;4.50;2.00;;;;;15.10;97884.80;;;;110715;1251;41245;-73
2022/05/27 04:04:50;;;;;;;4.40;2.00;;;;;15.20;97886.60;;;;110634;1251;41717;-75
2022/05/27 04:07:20;;;;;;;6.20;2.30;;;;;15.38;97882.60;;;;110524;1253;42451;-72
2022/05/27 04:09:50;;;;;;;8.30;2.20;;;;;15.50;97873.00;;;;110655;1251;41252;-72
2022/05/27 04:12:26;;;;;;;6.20;2.60;;;;;16.00;97881.40;;;;110621;1251;42366;-76
2022/05/27 04:14:55;;;;;;;4.50;2.30;;;;;16.26;97876.20;;;;110559;1252;41893;-77
2022/05/27 04:17:30;;;;;;;5.40;2.50;;;;;17.22;97857.00;;;;110661;1251;41203;-75
2022/05/27 04:20:12;;;;;;;6.10;2.40;;;;;18.44;97852.80;;;;110599;1252;41184;-63
2022/05/27 04:22:41;;;;;;;6.20;2.30;;;;;19.56;97849.40;;;;110459;1253;42325;-62
2022/05/27 04:25:15;;;;;;;5.80;2.10;;;;;20.50;97862.80;;;;110767;1251;41825;-59
2022/05/27 04:27:44;;;;;;;5.50;2.00;;;;;21.10;97844.20;;;;110596;1253;41603;-71
2022/05/27 04:30:19;;;;;;;4.30;1.80;;;;;21.40;97857.20;;;;110522;1250;41268;-68
2022/05/27 04:32:48;;;;;;;4.30;1.80;;;;;21.34;97856.00;;;;110692;1251;41625;-70
2022/05/27 04:35:18;;;;;;;5.20;1.80;;;;;21.50;97849.40;;;;110531;1253;41259;-64
2022/05/27 04:37:47;;;;;;;3.60;1.80;;;;;21.66;97855.60;;;;110525;1252;41143;-58
2022/05/27 04:40:17;;;;;;;3.90;2.00;;;;;22.34;97835.60;;;;110658;1251;41179;-61
2022/05/27 04:42:47;;;;;;;6.40;2.40;;;;;23.20;97835.00;;;;110743;1250;41137;-62
2022/05/27 04:45:19;;;;;;;4.40;2.10;;;;;23.62;97833.00;;;;110777;1250;41144;-59
2022/05/27 04:47:50;;;;;;;5.80;2.50;;;;;24.00;97828.00;;;;110769;1250;42896;-68
2022/05/27 04:50:20;;;;;;;6.50;2.40;;;;;24.40;97823.80;;;;110809;1250;41157;-72
2022/05/27 04:52:50;;;;;;;4.80;2.30;;;;;24.86;97828.80;;;;110790;1250;41646;-74
2022/05/27 04:55:22;;;;;;;7.20;2.30;;;;;25.50;97829.00;;;;110803;1251;42268;-62
2022/05/27 04:57:54;;;;;;;5.90;2.10;;;;;25.40;97823.00;;;;110533;1253;41531;-60
2022/05/27 05:00:27;;;;;;;3.90;1.90;;;;;25.26;97815.40;;;;110688;1250;41176;-66
2022/05/27 05:02:59;;;;;;;6.10;2.10;;;;;25.40;97809.00;;;;110790;1251;41258;-60
2022/05/27 05:05:32;;;;;;;3.90;2.00;;;;;25.58;97802.80;;;;110669;1251;41265;-59
2022/05/27 05:08:07;;;;;;;6.00;2.00;;;;;25.62;97806.80;;;;110639;1250;41147;-75
2022/05/27 05:10:36;;;;;;;5.70;2.30;;;;;26.30;97807.80;;;;110614;1252;41200;-59
2022/05/27 05:13:07;;;;;;;4.70;2.00;;;;;26.66;97811.40;;;;110813;1251;41162;-59
2022/05/27 05:15:38;;;;;;;5.10;1.90;;;;;27.30;97815.80;;;;110749;1250;41370;-59
2022/05/27 05:18:08;;;;;;;5.20;2.10;;;;;27.80;97817.80;;;;110683;1251;41167;-72
2022/05/27 05:20:38;;;;;;;6.70;2.40;;;;;27.56;97821.60;;;;110772;1250;41167;-60
2022/05/27 05:23:08;;;;;;;4.40;1.90;;;;;26.82;97819.80;;;;110748;1251;41165;-58
2022/05/27 05:25:42;;;;;;;5.50;2.00;;;;;25.90;97823.80;;;;110807;1250;41889;-58
2022/05/27 05:28:16;;;;;;;4.00;1.90;;;;;25.42;97833.00;;;;110837;1249;41185;-59
2022/05/27 05:30:46;;;;;;;5.30;2.00;;;;;24.60;97852.40;;;;110785;1251;41256;-59
2022/05/27 05:33:15;;;;;;;4.10;2.00;;;;;23.54;97864.00;;;;110791;1250;41346;-60
2022/05/27 05:35:47;;;;;;;5.70;2.20;;;;;22.66;97866.20;;;;110836;1250;41617;-65
2022/05/27 05:38:17;;;;;;;5.50;2.20;;;;;21.36;97868.60;;;;110782;1250;41156;-60
2022/05/27 05:40:47;;;;;;;4.80;2.20;;;;;21.00;97867.20;;;;110818;1253;41145;-59
2022/05/27 05:43:16;;;;;;;4.90;2.20;;;;;20.80;97862.00;;;;110707;1250;41276;-68
2022/05/27 05:45:46;;;;;;;6.30;2.40;;;;;20.60;97859.20;;;;110736;1251;41266;-59
2022/05/27 05:48:15;;;;;;;5.30;2.20;;;;;20.30;97863.60;;;;110570;1253;41709;-63
2022/05/27 05:50:45;;;;;;;5.40;2.50;;;;;20.30;97855.40;;;;110830;1250;41153;-60
2022/05/27 05:53:14;;;;;;;7.10;2.60;;;;;20.02;97852.60;;;;110786;1249;40928;-60
2022/05/27 05:55:44;;;;;;;5.50;2.40;;;;;20.30;97847.80;;;;110740;1252;41368;-66
2022/05/27 05:58:13;;;;;;;7.90;2.30;;;;;20.94;97838.00;;;;110681;1250;42370;-71
2022/05/27 06:00:43;;;;;;;8.40;2.30;;;;;21.20;97855.20;;;;110604;1253;41312;-74
2022/05/27 06:03:14;;;;;;;8.20;2.30;;;;;21.02;97855.40;;;;110813;1250;41365;-59
2022/05/27 06:05:43;;;;;;;4.40;1.90;;;;;20.80;97855.40;;;;110615;1252;41907;-76
2022/05/27 06:08:14;;;;;;;10.30;2.00;;;;;20.96;97858.60;;;;110802;1250;41163;-73
2022/05/27 06:10:47;;;;;;;4.50;2.00;;;;;21.30;97862.60;;;;110783;1250;41553;-64
2022/05/27 06:13:16;;;;;;;5.60;2.20;;;;;21.28;97862.20;;;;110784;1250;41149;-75
2022/05/27 06:15:46;;;;;;;5.70;2.10;;;;;21.30;97861.20;;;;110805;1250;41778;-69
2022/05/27 06:18:15;;;;;;;5.60;2.00;;;;;21.78;97834.00;;;;110572;1252;41175;-73
2022/05/27 06:20:45;;;;;;;5.90;2.30;;;;;22.40;97847.40;;;;110736;1250;41132;-76
2022/05/27 06:23:14;;;;;;;3.90;1.90;;;;;22.40;97845.20;;;;110729;1250;41526;-78
2022/05/27 06:25:44;;;;;;;5.60;2.20;;;;;22.60;97846.40;;;;110896;1250;41622;-65
2022/05/27 06:36:36;;;;;;;4.70;1.90;;;;;23.20;97851.40;;;;110804;1250;42291;-61
2022/05/27 06:39:07;;;;;;;4.40;2.00;;;;;22.88;97854.60;;;;110822;1250;41403;-64
2022/05/27 06:41:37;;;;;;;4.40;2.10;;;;;22.60;97850.40;;;;110780;1252;41263;-66
2022/05/27 06:44:07;;;;;;;10.90;2.30;;;;;22.56;97852.40;;;;110661;1251;41716;-58
2022/05/27 06:46:36;;;;;;;5.30;2.20;;;;;22.50;97854.00;;;;110752;1250;41507;-58
2022/05/27 06:49:07;;;;;;;10.40;2.30;;;;;22.40;97847.80;;;;110567;1251;41265;-58
2022/05/27 06:51:37;;;;;;;4.60;1.90;;;;;22.40;97850.20;;;;110690;1250;41666;-61
2022/05/27 06:54:09;;;;;;;3.00;1.70;;;;;22.46;97851.20;;;;110832;1250;41150;-63
2022/05/27 06:56:40;;;;;;;6.20;2.50;;;;;22.70;97855.40;;;;110795;1250;41724;-67
2022/05/27 06:59:10;;;;;;;5.70;2.10;;;;;22.38;97851.60;;;;110881;1250;41927;-65
2022/05/27 07:01:39;;;;;;;5.10;2.20;;;;;22.30;97851.80;;;;110533;1253;41378;-63
2022/05/27 07:04:09;;;;;;;5.00;2.10;;;;;22.20;97855.60;;;;110595;1252;41420;-68
2022/05/27 07:06:43;;;;;;;6.10;2.40;;;;;22.08;97850.00;;;;110738;1250;41860;-73
2022/05/27 07:09:15;;;;;;;4.40;2.00;;;;;21.82;97848.40;;;;110729;1251;42960;-59
2022/05/27 07:11:46;;;;;;;4.40;2.00;;;;;21.70;97848.20;;;;110604;1253;41174;-72
2022/05/27 07:14:15;;;;;;;5.90;2.00;;;;;21.70;97851.00;;;;110843;1250;41816;-66
2022/05/27 07:16:46;;;;;;;7.20;2.20;;;;;21.90;97849.20;;;;110839;1250;41512;-68
2022/05/27 07:19:36;;;;;;;4.80;2.00;;;;;22.06;97848.80;;;;110661;1252;41160;-65
2022/05/27 07:22:07;;;;;;;7.30;2.60;;;;;22.20;97847.40;;;;110866;1251;41151;-65
2022/05/27 07:24:37;;;;;;;4.80;2.10;;;;;22.10;97846.80;;;;110631;1252;41182;-67
2022/05/27 07:27:07;;;;;;;6.50;2.40;;;;;21.90;97843.60;;;;110785;1250;41144;-69
2022/05/27 07:29:36;;;;;;;6.20;2.40;;;;;21.80;97844.60;;;;110627;1253;42559;-66
2022/05/27 07:32:06;;;;;;;5.90;2.30;;;;;21.80;97841.60;;;;110599;1253;41268;-62
2022/05/27 07:34:35;;;;;;;4.70;2.10;;;;;21.60;97841.60;;;;110689;1250;41985;-73
2022/05/27 07:37:04;;;;;;;4.40;2.00;;;;;21.60;97839.80;;;;110801;1250;41156;-64
2022/05/27 07:39:34;;;;;;;7.80;2.50;;;;;21.60;97842.80;;;;110772;1250;41197;-64
2022/05/27 07:42:04;;;;;;;7.10;2.30;;;;;21.66;97837.40;;;;110793;1250;41588;-68
2022/05/27 07:44:33;;;;;;;5.30;2.00;;;;;21.70;97839.40;;;;110847;1250;41253;-65
2022/05/27 07:47:03;;;;;;;6.40;2.60;;;;;21.80;97842.40;;;;110715;1250;41147;-71
2022/05/27 07:49:33;;;;;;;5.50;2.30;;;;;21.84;97838.60;;;;110857;1250;41280;-62
2022/05/27 07:52:04;;;;;;;7.80;2.20;;;;;21.80;97839.40;;;;110839;1250;41900;-72
2022/05/27 07:54:34;;;;;;;5.90;2.20;;;;;21.90;97840.40;;;;110618;1251;41155;-72
2022/05/27 07:57:23;;;;;;;;;;;;;22.04;97842.00;;;;110725;1250;41185;-75
2022/05/27 07:59:55;;;;;;;4.90;2.00;;;;;22.20;97838.40;;;;110760;1251;41401;-73
2022/05/27 08:02:25;;;;;;;4.80;2.10;;;;;22.50;97835.00;;;;110730;1251;41264;-62
2022/05/27 08:04:54;;;;;;;5.90;2.30;;;;;22.80;97835.20;;;;110802;1250;41137;-74
2022/05/27 08:07:26;;;;;;;7.00;2.50;;;;;23.00;97832.80;;;;110556;1253;41719;-72
2022/05/27 08:09:55;;;;;;;8.30;2.20;;;;;23.08;97828.20;;;;110761;1250;41267;-58
2022/05/27 08:12:24;;;;;;;5.70;2.20;;;;;23.38;97823.00;;;;110702;1250;41187;-73
2022/05/27 08:14:54;;;;;;;5.20;2.20;;;;;23.02;97823.00;;;;110661;1250;41623;-69
2022/05/27 08:17:23;;;;;;;5.60;2.20;;;;;22.94;97823.20;;;;110792;1250;41266;-75
2022/05/27 08:19:52;;;;;;;5.90;2.30;;;;;23.08;97817.80;;;;110789;1250;41140;-75
2022/05/27 08:22:21;;;;;;;6.40;2.00;;;;;23.20;97815.40;;;;110734;1250;42393;-71
2022/05/27 08:24:50;;;;;;;7.10;2.60;;;;;23.10;97810.80;;;;110618;1251;42478;-76
2022/05/27 08:27:19;;;;;;;5.70;2.20;;;;;23.12;97809.00;;;;110555;1253;41625;-72
2022/05/27 08:29:49;;;;;;;5.10;2.10;;;;;23.10;97804.40;;;;110738;1251;41164;-76
2022/05/27 08:32:19;;;;;;;3.50;1.80;;;;;23.24;97799.40;;;;110601;1253;42694;-62
2022/05/27 08:41:01;;;;;;;3.90;1.80;;;;;23.74;97798.00;;;;110703;1251;41645;-67
2022/05/27 08:43:49;;;;;;;5.10;1.90;;;;;24.20;97790.20;;;;110664;1251;41155;-65
2022/05/27 08:46:33;;;;;;;9.80;1.90;;;;;24.46;97790.00;;;;110700;1251;41156;-60
2022/05/27 08:49:06;;;;;;;3.30;1.60;;;;;24.30;97786.00;;;;110598;1251;41656;-70
2022/05/27 08:51:58;;;;;;;4.80;1.80;;;;;24.22;97785.80;;;;110692;1251;41437;-69
2022/05/27 08:54:30;;;;;;;4.00;1.70;;;;;24.40;97783.40;;;;110659;1251;41600;-73
2022/05/27 09:00:04;;;;;;;3.10;1.60;;;;;25.16;97778.40;;;;110656;1250;41147;-65
2022/05/27 09:02:55;;;;;;;4.70;1.80;;;;;25.76;97774.40;;;;110648;1251;41229;-65
2022/05/27 09:05:37;;;;;;;3.50;1.60;;;;;25.68;97767.60;;;;110669;1251;41822;-64
2022/05/27 09:08:25;;;;;;;4.00;1.70;;;;;26.26;97758.80;;;;110623;1251;41404;-60
2022/05/27 09:11:13;;;;;;;7.50;2.00;;;;;26.96;97748.40;;;;110530;1253;42326;-67
2022/05/27 09:13:56;;;;;;;4.70;2.10;;;;;27.12;97745.20;;;;110715;1251;41797;-59
2022/05/27 09:17:02;;;;;;;6.40;1.70;;;;;26.98;97744.80;;;;110714;1251;41418;-67
2022/05/27 09:20:01;;;;;;;3.70;1.60;;;;;27.20;97736.40;;;;110118;1257;41144;-61
2022/05/27 09:22:36;;;;;;;2.40;1.50;;;;;27.80;97741.00;;;;110189;1257;41828;-69
2022/05/27 09:25:10;;;;;;;3.40;1.50;;;;;27.36;97742.40;;;;110258;1256;41178;-64
2022/05/27 09:28:04;;;;;;;4.00;1.80;;;;;26.90;97734.40;;;;110095;1260;41187;-65
2022/05/27 09:30:35;;;;;;;4.90;1.70;;;;;27.06;97718.40;;;;110127;1259;42960;-72
2022/05/27 09:33:11;;;;;;;;;;;;;27.84;97717.40;;;;110230;1258;41144;-71
2022/05/27 09:35:47;;;;;;;5.00;1.70;;;;;27.74;97717.40;;;;110194;1257;41639;-68
2022/05/27 09:38:22;;;;;;;4.40;1.60;;;;;27.00;97714.60;;;;110187;1257;41256;-74
2022/05/27 09:40:59;;;;;;;4.50;1.60;;;;;27.40;97717.40;;;;110249;1257;41177;-70
2022/05/27 09:43:48;;;;;;;2.90;1.50;;;;;28.26;97706.80;;;;110172;1257;41485;-66
2022/05/27 09:46:24;;;;;;;4.60;1.60;;;;;28.44;97699.20;;;;110141;1258;42831;-71
2022/05/27 09:48:56;;;;;;;3.10;1.40;;;;;28.90;97702.80;;;;110165;1257;42262;-64
2022/05/27 09:51:30;;;;;;;2.70;1.40;;;;;28.40;97706.80;;;;110102;1259;41267;-59
2022/05/27 09:54:35;;;;;;;2.00;1.30;;;;;28.40;97710.00;;;;110184;1257;42456;-61
2022/05/27 09:57:10;;;;;;;1.40;1.10;;;;;27.94;97708.00;;;;110648;1251;42646;-64
2022/05/27 09:59:42;;;;;;;3.10;1.50;;;;;27.70;97698.40;;;;110652;1251;41271;-67
2022/05/27 10:02:37;;;;;;;4.10;1.60;;;;;27.10;97690.40;;;;110626;1251;41276;-59
2022/05/27 10:05:14;;;;;;;2.40;1.30;;;;;26.06;97698.00;;;;110683;1251;41635;-61
2022/05/27 10:07:51;;;;;;;2.90;1.50;;;;;25.70;97705.00;;;;110503;1253;41198;-60
2022/05/27 10:10:35;;;;;;;2.60;1.40;;;;;25.42;97704.60;;;;110587;1253;41769;-60
2022/05/27 10:13:18;;;;;;;4.60;1.60;;;;;25.12;97706.60;;;;110735;1251;41389;-62
2022/05/27 10:15:48;;;;;;;3.90;1.60;;;;;24.80;97710.60;;;;110840;1250;41162;-58
2022/05/27 10:18:24;;;;;;;5.70;1.40;;;;;24.60;97712.00;;;;110765;1252;41155;-60
2022/05/27 10:20:57;;;;;;;3.70;1.40;;;;;24.40;97711.40;;;;110796;1250;41432;-62
2022/05/27 10:23:28;;;;;;;3.20;1.40;;;;;24.22;97712.40;;;;110726;1252;42219;-62
2022/05/27 10:26:27;;;;;;;5.20;1.70;;;;;24.10;97715.20;;;;110671;1250;41148;-57
2022/05/27 10:29:08;;;;;;;3.60;1.50;;;;;23.94;97714.00;;;;110597;1251;41263;-60
2022/05/27 10:31:51;;;;;;;2.20;1.50;;;;;23.80;97714.00;;;;110811;1253;41156;-58
2022/05/27 10:34:42;;;;;;;1.80;1.30;;;;;23.80;97713.00;;;;110776;1252;41156;-59
2022/05/27 10:37:28;;;;;;;;;;;;;23.80;97712.60;;;;110581;1253;41787;-64
2022/05/27 10:40:23;;;;;;;2.30;1.50;;;;;23.80;97710.40;;;;110667;1251;41149;-67
2022/05/27 10:43:26;;;;;;;3.60;1.40;;;;;23.86;97707.40;;;;110484;1254;41688;-63
2022/05/27 10:45:56;;;;;;;3.80;1.40;;;;;23.90;97706.60;;;;110735;1250;41151;-69
2022/05/27 10:48:44;;;;;;;3.50;1.40;;;;;24.00;97699.40;;;;110511;1253;42385;-63
2022/05/27 10:51:45;;;;;;;3.00;1.50;;;;;24.20;97693.00;;;;110544;1252;41237;-69
2022/05/27 10:54:47;;;;;;;1.80;1.40;;;;;24.40;97690.20;;;;110232;1253;41287;-73
2022/05/27 11:03:38;;;;;;;3.30;1.40;;;;;24.40;97684.20;;;;110548;1252;41755;-64
2022/05/27 11:06:25;;;;;;;5.50;1.80;;;;;24.50;97684.00;;;;110678;1251;41254;-67
2022/05/27 11:09:20;;;;;;;2.50;1.50;;;;;24.50;97681.20;;;;110612;1251;41161;-60
2022/05/27 11:11:52;;;;;;;5.70;1.80;;;;;24.42;97675.60;;;;110724;1251;41954;-62
2022/05/27 11:17:48;;;;;;;5.70;1.70;;;;;24.20;97670.40;;;;110671;1251;41156;-63
2022/05/27 11:20:29;;;;;;;2.70;1.60;;;;;24.20;97668.00;;;;110657;1251;41494;-59
2022/05/27 11:23:05;;;;;;;3.10;1.50;;;;;24.32;97659.60;;;;110612;1251;42201;-62
2022/05/27 11:25:43;;;;;;;5.00;1.70;;;;;24.50;97655.00;;;;110705;1251;41621;-63
2022/05/27 11:28:21;;;;;;;5.30;1.80;;;;;24.60;97646.20;;;;110665;1252;41273;-67
2022/05/27 11:30:55;;;;;;;3.20;1.70;;;;;24.70;97640.20;;;;110641;1252;42568;-59
2022/05/27 11:33:44;;;;;;;6.20;1.70;;;;;24.74;97637.00;;;;110702;1250;41146;-70
2022/05/27 11:36:58;;;;;;;3.70;1.70;;;;;24.60;97634.40;;;;110692;1251;41437;-62
2022/05/27 11:39:49;;;;;;;4.10;1.70;;;;;24.50;97632.40;;;;110198;1258;41275;-69
2022/05/27 11:42:48;;;;;;;5.10;1.70;;;;;24.50;97623.00;;;;110094;1259;42209;-57
2022/05/27 11:45:30;;;;;;;4.60;1.80;;;;;24.40;97622.20;;;;110081;1258;41167;-72
2022/05/27 11:48:14;;;;;;;4.30;1.60;;;;;24.40;97619.00;;;;110115;1258;41150;-67
2022/05/27 11:51:27;;;;;;;4.20;1.60;;;;;24.58;97611.60;;;;110136;1258;41202;-64
2022/05/27 11:54:08;;;;;;;8.90;1.70;;;;;25.88;97603.00;;;;110227;1258;41140;-69
2022/05/27 11:56:44;;;;;;;;;;;;;27.02;97597.20;;;;110275;1258;41157;-61
2022/05/27 11:59:21;;;;;;;5.80;1.70;;;;;27.52;97595.20;;;;110035;1259;41610;-71
2022/05/27 12:01:57;;;;;;;3.10;1.60;;;;;27.60;97588.20;;;;110114;1259;41170;-65
2022/05/27 12:04:36;;;;;;;5.80;1.70;;;;;27.08;97583.80;;;;110130;1259;41151;-71
2022/05/27 12:07:13;;;;;;;2.90;1.50;;;;;26.60;97581.40;;;;110150;1258;41150;-62
2022/05/27 12:10:00;;;;;;;3.40;1.60;;;;;26.32;97578.80;;;;110076;1260;41322;-67
2022/05/27 12:12:34;;;;;;;5.90;1.50;;;;;26.04;97577.20;;;;110140;1258;41623;-72
2022/05/27 12:15:07;;;;;;;2.40;1.40;;;;;26.06;97577.00;;;;110041;1258;41460;-66
2022/05/27 12:17:43;;;;;;;2.00;1.20;;;;;26.24;97578.00;;;;110107;1257;41198;-59
2022/05/27 12:20:33;;;;;;;2.60;1.40;;;;;26.44;97570.40;;;;110013;1259;41171;-68
2022/05/27 12:23:06;;;;;;;4.30;1.50;;;;;26.30;97564.60;;;;110432;1253;41370;-73
2022/05/27 12:25:39;;;;;;;4.60;1.50;;;;;26.20;97560.80;;;;110568;1250;41863;-65
2022/05/27 12:28:08;;;;;;;3.50;1.30;;;;;26.20;97554.20;;;;110598;1253;41160;-60
2022/05/27 12:30:41;;;;;;;3.20;1.60;;;;;26.40;97546.40;;;;110755;1251;41332;-65
2022/05/27 12:33:18;;;;;;;6.60;1.60;;;;;26.64;97546.80;;;;110534;1252;41158;-61
2022/05/27 12:35:53;;;;;;;3.60;1.60;;;;;26.40;97539.20;;;;110477;1253;42262;-58
2022/05/27 12:38:29;;;;;;;5.90;1.60;;;;;26.30;97540.40;;;;110766;1252;42459;-64
2022/05/27 12:41:06;;;;;;;3.10;1.50;;;;;26.30;97534.40;;;;110590;1253;41180;-59
2022/05/27 12:43:39;;;;;;;3.70;1.40;;;;;26.10;97533.80;;;;110649;1251;41267;-64
2022/05/27 12:46:32;;;;;;;3.70;1.40;;;;;26.20;97529.60;;;;110690;1250;41983;-68
2022/05/27 12:49:40;;;;;;;3.90;1.40;;;;;26.56;97527.00;;;;110636;1252;41638;-62
2022/05/27 12:52:28;;;;;;;4.10;1.50;;;;;26.80;97512.80;;;;110362;1250;41169;-62
2022/05/27 12:55:01;;;;;;;9.70;1.90;;;;;26.88;97507.40;;;;110599;1250;41357;-61
2022/05/27 13:00:58;;;;;;;3.60;1.70;;;;;26.40;97508.80;;;;110610;1252;41358;-59
2022/05/27 13:03:36;;;;;;;5.30;1.70;;;;;26.16;97496.20;;;;110511;1253;41187;-60
2022/05/27 13:06:12;;;;;;;3.20;1.50;;;;;25.90;97494.20;;;;110649;1253;42219;-64
2022/05/27 13:09:00;;;;;;;1.90;1.30;;;;;25.82;97492.60;;;;110809;1253;41602;-62
2022/05/27 13:11:36;;;;;;;4.00;1.60;;;;;26.00;97488.00;;;;110533;1254;41161;-60
2022/05/27 13:14:07;;;;;;;3.90;1.60;;;;;25.86;97481.40;;;;110641;1252;41600;-70
2022/05/27 13:17:22;;;;;;;4.00;1.50;;;;;25.70;97476.40;;;;110574;1250;41567;-60
2022/05/27 13:20:14;;;;;;;4.60;1.50;;;;;25.50;97475.80;;;;110797;1250;41152;-59
2022/05/27 13:23:12;;;;;;;3.20;1.50;;;;;25.40;97467.00;;;;110473;1252;41206;-65
2022/05/27 13:25:49;;;;;;;2.60;1.40;;;;;25.30;97464.60;;;;110343;1253;41202;-58
2022/05/27 13:28:39;;;;;;;6.20;1.70;;;;;25.30;97460.00;;;;110632;1251;41159;-59
2022/05/27 13:31:13;;;;;;;4.30;1.60;;;;;25.50;97454.60;;;;110571;1251;41734;-72
2022/05/27 13:34:20;;;;;;;4.10;1.60;;;;;25.60;97448.80;;;;110757;1250;41239;-65
2022/05/27 13:36:54;;;;;;;5.40;1.50;;;;;25.40;97446.60;;;;110763;1250;41159;-58